Flight Track Log - Related Links

Times and Time Zones

All times are in EDT time to prevent confusion due to time zone crossing. See the N315CJ flight status page for this flight to view local times or setup timezone preferences in your user account.


Time Position Orientation Groundspeed Altitude Reporting Facility
EDT Latitude Longitude Course Direction KTS MPH feet Rate Location/Type
Wed 12:42:43 PM 42.1659 -71.0555 138° Southeast 322 371 19,000  Level FlightAware ADS-B (KASH)
Wed 12:42:55 PM 42.1619 -71.0508 143° Southeast 324 373 19,600 3,070 Climbing FlightAware ADS-B (EGWU / NHT)
Wed 12:43:26 PM 42.1138 -71.0051 145° Southeast 319 367 21,200 3,190 Climbing FlightAware ADS-B (KASH)
Wed 12:44:14 PM 42.0671 -70.9613 145° Southeast 323 372 23,800 3,000 Climbing FlightAware ADS-B (KOWD)
Wed 12:44:50 PM 42.0201 -70.9169 145° Southeast 312 359 25,400 2,824 Climbing FlightAware ADS-B (EGWU / NHT)
Wed 12:45:22 PM 41.9747 -70.8742 145° Southeast 291 335 27,000 2,694 Climbing FlightAware ADS-B (KOWD)
Wed 12:45:39 PM 41.9566 -70.8575 145° Southeast 315 362 27,600 1,200 Climbing FlightAware ADS-B (KASH)
Wed 12:46:12 PM 41.9258 -70.8294 146° Southeast 306 352 28,000 381 Climbing FlightAware ADS-B (EGWU / NHT)
Wed 12:46:42 PM 41.8833 -70.7901 145° Southeast 323 372 28,000  Level FlightAware ADS-B (EGWU / NHT)
Wed 12:47:12 PM 41.8468 -70.7621 164° South 297 342 28,000  Level FlightAware ADS-B (KOWD)
Wed 12:47:20 PM 41.8362 -70.7597 181° South 277 319 28,000  Level FlightAware ADS-B (KOWD)
Wed 12:47:30 PM 41.8224 -70.7612 193° South 270 311 28,000  Level FlightAware ADS-B
Wed 12:47:39 PM 41.8120 -70.7661 206° Southwest 265 305 28,000  Level FlightAware ADS-B (KOWD)
Wed 12:48:12 PM 41.7788 -70.7948 218° Southwest 266 306 28,000  Level FlightAware ADS-B (KOWD)
Wed 12:48:18 PM 41.7717 -70.8028 221° Southwest 260 299 28,000  Level FlightAware ADS-B (KASH)
Wed 12:48:53 PM 41.7415 -70.8411 224° Southwest 269 310 28,000  Level FlightAware ADS-B (KOWD)
Wed 12:49:29 PM 41.7078 -70.8845 224° Southwest 270 311 28,000  Level FlightAware ADS-B
Wed 12:49:59 PM 41.6816 -70.9184 224° Southwest 271 312 28,000  Level FlightAware ADS-B (KASH)
Wed 12:50:30 PM 41.6534 -70.9547 224° Southwest 271 312 28,000  Level FlightAware ADS-B
Wed 12:51:00 PM 41.6264 -70.9895 224° Southwest 271 312 28,000  Level FlightAware ADS-B (KASH)
Wed 12:51:34 PM 41.5964 -71.0282 224° Southwest 269 310 28,000  Level FlightAware ADS-B
Wed 12:52:15 PM 41.5597 -71.0755 224° Southwest 266 306 28,000  Level FlightAware ADS-B (KASH)
Wed 12:52:57 PM 41.5228 -71.1231 224° Southwest 267 307 28,000  Level FlightAware ADS-B (KASH)
Wed 12:53:30 PM 41.5081 -71.1439 231° Southwest 267 307 28,000  Level Boston Center
Wed 12:53:32 PM 41.4917 -71.1629 224° Southwest 267 307 28,000  Level FlightAware ADS-B (KASH)
Wed 12:54:16 PM 41.4526 -71.2131 224° Southwest 270 311 28,000  Level FlightAware ADS-B (KASH)
Wed 12:54:31 PM 41.4486 -71.2181 223° Southwest 267 307 28,000  Level Boston Center
Wed 12:54:52 PM 41.4199 -71.2550 224° Southwest 270 311 28,000  Level FlightAware ADS-B (KASH)
Wed 12:55:31 PM 41.3848 -71.2998 224° Southwest 271 312 28,000  Level FlightAware ADS-B (KASH)
Wed 12:56:00 PM 41.4094 -71.2574 217° Southwest  Level FlightAware Approximate
Wed 12:56:14 PM 41.3459 -71.3495 224° Southwest 274 315 28,000  Level FlightAware ADS-B (KASH)
Wed 12:56:31 PM 41.3406 -71.3575 217° Southwest 269 310 28,000  Level Boston Center
Wed 12:57:35 PM 41.2856 -71.4289 224° Southwest 273 314 28,000  Level Boston Center
Wed 12:58:00 PM 41.2932 -71.3831 206° Southwest  Level FlightAware Approximate
Wed 12:58:35 PM 41.2269 -71.5142 228° Southwest 279 321 28,000  Level Boston Center
Wed 12:59:00 PM 41.2781 -71.4222 231° Southwest  Level Estimated
Wed 12:59:36 PM 41.1711 -71.6025 230° Southwest 284 327 28,000  Level Boston Center
Wed 01:01:40 PM 41.0692 -71.7656 246° West 284 327 28,000 -12 Level Boston Center
Wed 01:07:46 PM 40.7483 -72.2631 230° Southwest 288 331 27,900 -224 Descending Boston Center
Wed 01:08:49 PM 40.6978 -72.3422 230° Southwest 280 322 26,400 -1,500 Descending Boston Center
Wed 01:09:50 PM 40.6447 -72.4217 229° Southwest 287 330 24,800 -1,607 Descending Boston Center
Wed 01:10:00 PM 40.6544 -72.3860 230° Southwest  Level FlightAware Approximate
Wed 01:11:00 PM 40.6062 -72.4621 230° Southwest  Level FlightAware Approximate
Wed 01:11:52 PM 40.5292 -72.5978 229° Southwest 315 362 21,500  Level Boston Center
Wed 01:12:00 PM 40.5580 -72.5380 230° Southwest  Level FlightAware Approximate
Wed 01:13:00 PM 40.5097 -72.6138 230° Southwest  Level FlightAware Approximate
Wed 01:13:53 PM 40.4064 -72.7864 230° Southwest 318 366 17,900  Level Boston Center
Wed 01:15:55 PM 40.2928 -72.9567 228° Southwest 311 358 16,000 -802 Descending Boston Center
Wed 01:18:00 PM 40.1797 -73.1281 229° Southwest 310 357 14,600 -774 Descending Boston Center
Wed 01:19:01 PM 40.1289 -73.2158 233° Southwest 307 353 13,600 -1,038 Descending Boston Center
Wed 01:21:05 PM 40.0322 -73.4114 237° Southwest 296 341 11,400 -984 Descending New York Center
Wed 01:22:04 PM 39.9839 -73.4697 223° Southwest 301 346 10,600 -1,180 Descending Boston Center
Wed 01:23:07 PM 39.9511 -73.5742 248° West 270 311 9,000 -1,488 Descending Boston Center
Wed 01:24:05 PM 39.9658 -73.6581 283° West 250 288 7,600 -1,525 Descending New York Center
Wed 01:25:05 PM 39.9825 -73.7428 284° West 241 277 6,000 -1,750 Descending New York Center
Wed 01:26:05 PM 40.0008 -73.8383 284° West 247 284 4,100 -1,100 Descending New York Center
Wed 01:27:05 PM 40.0197 -73.9122 288° West 236 272 3,800 -431 Descending New York Center
Wed 01:29:06 PM 40.0811 -74.0292 304° West 203 234 2,800 -700 Descending New York Center
Wed 01:30:05 PM 40.1286 -74.0447 346° North 171 197 1,700 -908 Descending New York Center
Wed 01:31:05 PM 40.1528 -74.0786 313° West 149 171 1,000 767 Descending New York Center
Wed 01:33:05 PM 40.2008 -74.1461 313° West 124 143 4,000 1,000 Climbing New York Center
Wed 01:34:05 PM 40.2247 -74.1800 313° West 124 143 4,000  Level New York Center
Wed 01:35:06 PM 40.2508 -74.2164 313° West 124 143 4,000  Level New York Center
Wed 01:37:05 PM 40.2708 -74.2447 313° West 124 143 4,000  Level New York Center

Login

Don't have an account? Register now (free) for customized features, flight alerts, and more!